createdAt,value
2022-12-20T00:01:20.502Z,102082.28
2022-12-20T00:03:49.347Z,102081.28
2022-12-20T00:06:16.222Z,102076.84
2022-12-20T00:08:43.256Z,102080.28
2022-12-20T00:11:10.154Z,102080.94
2022-12-20T00:13:37.455Z,102082.88
2022-12-20T00:16:05.585Z,102084.94
2022-12-20T00:18:32.578Z,102065.56
2022-12-20T00:21:01.415Z,102061.22
2022-12-20T00:23:29.930Z,102069.31
2022-12-20T00:26:04.575Z,102068.03
2022-12-20T00:28:31.646Z,102063.97
2022-12-20T00:30:59.051Z,102054.94
2022-12-20T00:33:28.665Z,102063.53
2022-12-20T00:35:56.729Z,102064.31
2022-12-20T00:38:24.536Z,102076.25
2022-12-20T00:41:05.804Z,102067.50
2022-12-20T00:43:32.993Z,102055.75
2022-12-20T00:46:00.339Z,102045.62
2022-12-20T00:48:32.867Z,102044.75
2022-12-20T00:51:04.482Z,102053.75
2022-12-20T00:53:33.539Z,102055.44
2022-12-20T00:56:00.523Z,102048.62
2022-12-20T00:58:29.622Z,102053.53
2022-12-20T01:00:57.260Z,102045.91
2022-12-20T01:03:24.886Z,102044.72
2022-12-20T01:06:00.340Z,102036.31
2022-12-20T01:08:32.910Z,102032.19
2022-12-20T01:10:59.707Z,102033.56
2022-12-20T01:13:27.855Z,102027.09
2022-12-20T01:15:54.558Z,102038.81
2022-12-20T01:18:21.312Z,102031.38
2022-12-20T01:20:48.261Z,102021.53
2022-12-20T01:23:14.963Z,102011.69
2022-12-20T01:25:41.764Z,102011.56
2022-12-20T01:28:08.430Z,102011.53
2022-12-20T01:30:35.099Z,102005.75
2022-12-20T01:33:01.805Z,102009.44
2022-12-20T01:35:30.867Z,101992.84
2022-12-20T01:37:59.121Z,101999.22
2022-12-20T01:40:25.877Z,101990.66
2022-12-20T01:42:52.629Z,101992.66
2022-12-20T01:45:25.866Z,101979.63
2022-12-20T01:47:52.896Z,101970.88
2022-12-20T01:50:19.749Z,101982.44
2022-12-20T01:52:47.653Z,101975.84
2022-12-20T01:55:18.816Z,101971.28
2022-12-20T01:57:45.587Z,101976.81
2022-12-20T02:00:12.814Z,101963.97
2022-12-20T02:02:40.557Z,101959.53
2022-12-20T02:05:07.717Z,101955.19
2022-12-20T02:07:36.977Z,101952.28
2022-12-20T02:10:04.240Z,101947.72
2022-12-20T02:12:37.344Z,101958.50
2022-12-20T02:15:24.279Z,101944.28
2022-12-20T02:17:54.484Z,101947.50
2022-12-20T02:20:39.751Z,101947.94
2022-12-20T02:23:35.838Z,101959.69
2022-12-20T02:26:14.767Z,101951.81
2022-12-20T02:28:50.491Z,101956.22
2022-12-20T02:31:19.462Z,101955.13
2022-12-20T02:33:48.863Z,101955.97
2022-12-20T02:36:18.860Z,101953.84
2022-12-20T02:38:46.280Z,101943.75
2022-12-20T02:41:17.746Z,101954.75
2022-12-20T02:44:04.724Z,101948.44
2022-12-20T02:46:32.856Z,101943.88
2022-12-20T02:49:02.055Z,101943.09
2022-12-20T02:51:30.723Z,101941.44
2022-12-20T02:53:58.665Z,101943.16
2022-12-20T02:56:34.785Z,101950.28
2022-12-20T02:59:20.644Z,101943.38
2022-12-20T03:01:55.246Z,101947.31
2022-12-20T03:04:28.504Z,101938.94
2022-12-20T03:07:06.887Z,101941.63
2022-12-20T03:09:35.430Z,101938.25
2022-12-20T03:12:02.171Z,101932.00
2022-12-20T03:14:28.893Z,101935.56
2022-12-20T03:16:55.936Z,101943.03
2022-12-20T03:19:22.757Z,101939.38
2022-12-20T03:21:49.465Z,101941.72
2022-12-20T03:24:17.289Z,101949.41
2022-12-20T03:26:44.206Z,101938.44
2022-12-20T03:29:11.921Z,101936.41
2022-12-20T03:31:40.757Z,101933.62
2022-12-20T03:34:07.755Z,101933.53
2022-12-20T03:36:34.866Z,101930.41
2022-12-20T03:39:02.281Z,101921.22
2022-12-20T03:41:29.240Z,101928.34
2022-12-20T03:43:56.031Z,101920.25
2022-12-20T03:46:23.396Z,101910.06
2022-12-20T03:48:50.473Z,101905.75
2022-12-20T03:51:17.188Z,101897.66
2022-12-20T03:53:43.959Z,101900.78
2022-12-20T03:56:10.714Z,101897.13
2022-12-20T03:58:37.523Z,101878.66
2022-12-20T04:01:16.724Z,101879.00
2022-12-20T04:03:43.485Z,101881.75
2022-12-20T04:06:11.811Z,101881.94
2022-12-20T04:08:38.641Z,101876.50
2022-12-20T04:11:17.847Z,101885.41
2022-12-20T04:13:44.840Z,101889.44
2022-12-20T04:16:12.339Z,101895.78
2022-12-20T04:18:39.135Z,101902.50
2022-12-20T04:21:07.612Z,101896.88
2022-12-20T04:23:35.477Z,101892.69
2022-12-20T04:26:02.612Z,101895.91
2022-12-20T04:28:29.732Z,101887.28
2022-12-20T04:30:56.515Z,101886.09
2022-12-20T04:33:23.551Z,101888.78
2022-12-20T04:35:50.626Z,101885.94
2022-12-20T04:38:21.946Z,101878.25
2022-12-20T04:40:50.776Z,101876.59
2022-12-20T04:43:17.772Z,101880.87
2022-12-20T04:45:47.441Z,101883.25
2022-12-20T04:48:46.592Z,101886.19
2022-12-20T04:51:01.994Z,101887.72
2022-12-20T04:53:47.367Z,101889.62
2022-12-20T04:56:21.538Z,101873.09
2022-12-20T04:58:49.365Z,101886.09
2022-12-20T05:01:18.745Z,101888.88
2022-12-20T05:03:46.046Z,101878.72
2022-12-20T05:06:13.198Z,101883.81
2022-12-20T05:08:40.259Z,101876.09
2022-12-20T05:11:07.324Z,101864.47
2022-12-20T05:13:34.178Z,101860.84
2022-12-20T05:16:01.290Z,101855.88
2022-12-20T05:18:28.111Z,101850.94
2022-12-20T05:21:15.415Z,101859.06
2022-12-20T05:24:00.830Z,101861.94
2022-12-20T05:26:30.684Z,101850.66
2022-12-20T05:28:57.485Z,101847.78
2022-12-20T05:31:24.415Z,101861.38
2022-12-20T05:33:51.606Z,101852.34
2022-12-20T05:36:18.518Z,101851.22
2022-12-20T05:38:45.226Z,101855.25
2022-12-20T05:41:12.258Z,101853.56
2022-12-20T05:43:39.188Z,101859.16
2022-12-20T05:46:05.991Z,101846.28
2022-12-20T05:48:34.224Z,101845.88
2022-12-20T05:51:01.476Z,101848.38
2022-12-20T05:53:28.323Z,101843.13
2022-12-20T05:55:56.462Z,101844.91
2022-12-20T05:58:23.388Z,101841.03
2022-12-20T06:00:53.094Z,101848.53
2022-12-20T06:03:20.222Z,101838.88
2022-12-20T06:05:50.085Z,101837.41
2022-12-20T06:08:16.881Z,101834.66
2022-12-20T06:10:46.472Z,101827.59
2022-12-20T06:13:13.248Z,101831.53
2022-12-20T06:15:40.149Z,101833.25
2022-12-20T06:18:07.377Z,101828.56
2022-12-20T06:20:34.910Z,101831.97
2022-12-20T06:23:02.021Z,101821.41
2022-12-20T06:25:29.714Z,101824.72
2022-12-20T06:27:56.906Z,101822.50
2022-12-20T06:30:27.519Z,101820.69
2022-12-20T06:32:57.168Z,101818.62
2022-12-20T06:35:23.933Z,101823.69
2022-12-20T06:37:50.899Z,101828.06
2022-12-20T06:40:17.831Z,101823.31
2022-12-20T06:42:44.883Z,101822.81
2022-12-20T06:45:12.239Z,101821.44
2022-12-20T06:47:39.566Z,101825.81
2022-12-20T06:50:06.974Z,101824.66
2022-12-20T06:52:33.840Z,101830.66
2022-12-20T06:55:01.049Z,101823.53
2022-12-20T06:57:27.926Z,101809.06
2022-12-20T06:59:54.995Z,101805.59
2022-12-20T07:02:23.973Z,101805.56
2022-12-20T07:04:54.684Z,101810.84
2022-12-20T07:07:21.721Z,101818.28
2022-12-20T07:09:48.501Z,101815.50
2022-12-20T07:12:15.425Z,101812.25
2022-12-20T07:14:42.446Z,101812.78
2022-12-20T07:17:09.705Z,101812.69
2022-12-20T07:19:43.071Z,101806.13
2022-12-20T07:22:14.514Z,101815.22
2022-12-20T07:24:41.375Z,101821.84
2022-12-20T07:27:08.348Z,101817.22
2022-12-20T07:29:36.863Z,101832.66
2022-12-20T07:32:04.091Z,101827.81
2022-12-20T07:34:30.812Z,101822.81
2022-12-20T07:36:57.703Z,101821.22
2022-12-20T07:39:27.194Z,101805.44
2022-12-20T07:41:55.733Z,101803.66
2022-12-20T07:44:24.151Z,101814.59
2022-12-20T07:46:51.225Z,101809.25
2022-12-20T07:49:18.383Z,101819.06
2022-12-20T07:51:47.959Z,101820.56
2022-12-20T07:54:21.511Z,101815.72
2022-12-20T07:56:50.047Z,101808.59
2022-12-20T07:59:20.624Z,101812.56
2022-12-20T08:01:48.536Z,101818.84
2022-12-20T08:04:18.931Z,101820.56
2022-12-20T08:06:46.700Z,101820.81
2022-12-20T08:09:15.004Z,101806.25
2022-12-20T08:11:44.553Z,101810.38
2022-12-20T08:14:12.074Z,101801.47
2022-12-20T08:16:39.327Z,101800.53
2022-12-20T08:19:07.950Z,101807.75
2022-12-20T08:21:37.671Z,101801.25
2022-12-20T08:24:04.859Z,101805.44
2022-12-20T08:26:31.750Z,101810.53
2022-12-20T08:28:58.671Z,101811.09
2022-12-20T08:31:26.112Z,101809.00
2022-12-20T08:33:56.995Z,101799.66
2022-12-20T08:36:24.199Z,101805.12
2022-12-20T08:38:51.966Z,101809.00
2022-12-20T08:41:20.931Z,101809.97
2022-12-20T08:43:47.784Z,101798.34
2022-12-20T08:46:15.389Z,101805.66
2022-12-20T08:48:42.354Z,101807.75
2022-12-20T08:51:10.483Z,101810.41
2022-12-20T08:53:38.099Z,101818.50
2022-12-20T08:56:12.561Z,101806.25
2022-12-20T08:58:40.454Z,101815.12
2022-12-20T09:01:08.810Z,101814.56
2022-12-20T09:03:36.618Z,101821.19
2022-12-20T09:06:10.429Z,101811.78
2022-12-20T09:08:38.730Z,101811.22
2022-12-20T09:11:25.764Z,101789.06
2022-12-20T09:13:55.020Z,101781.84
2022-12-20T09:16:23.558Z,101771.78
2022-12-20T09:19:00.752Z,101775.41
2022-12-20T09:21:31.514Z,101784.91
2022-12-20T09:23:58.530Z,101784.81
2022-12-20T09:26:25.636Z,101782.69
2022-12-20T09:28:53.252Z,101774.69
2022-12-20T09:31:22.220Z,101766.69
2022-12-20T09:33:49.113Z,101768.03
2022-12-20T09:36:20.197Z,101773.84
2022-12-20T09:38:47.721Z,101771.72
2022-12-20T09:41:26.860Z,101761.84
2022-12-20T09:43:53.978Z,101768.87
2022-12-20T09:46:20.980Z,101768.94
2022-12-20T09:48:47.849Z,101767.81
2022-12-20T09:51:14.812Z,101774.78
2022-12-20T09:54:05.502Z,101762.28
2022-12-20T09:56:42.298Z,101752.94
2022-12-20T09:59:13.645Z,101742.19
2022-12-20T10:01:43.804Z,101748.37
2022-12-20T10:04:22.791Z,101754.47
2022-12-20T10:07:16.667Z,101755.00
2022-12-20T10:09:51.145Z,101763.16
2022-12-20T10:12:18.067Z,101747.75
2022-12-20T10:14:56.067Z,101750.00
2022-12-20T10:17:41.795Z,101744.59
2022-12-20T10:20:15.032Z,101747.31
2022-12-20T10:22:41.994Z,101733.81
2022-12-20T10:25:27.416Z,101742.56
2022-12-20T10:27:57.738Z,101722.34
2022-12-20T10:30:27.088Z,101730.50
2022-12-20T10:32:55.338Z,101716.31
2022-12-20T10:35:27.556Z,101702.34
2022-12-20T10:38:07.507Z,101701.16
2022-12-20T10:43:38.984Z,101693.94
2022-12-20T10:46:07.415Z,101682.78
2022-12-20T10:48:40.952Z,101685.97
2022-12-20T10:51:16.315Z,101677.91
2022-12-20T10:53:55.672Z,101668.88
2022-12-20T10:56:24.237Z,101661.91
2022-12-20T10:58:55.606Z,101655.06
2022-12-20T11:01:24.884Z,101653.81
2022-12-20T11:03:59.534Z,101647.13
2022-12-20T11:06:30.454Z,101645.06
2022-12-20T11:09:15.698Z,101646.69
2022-12-20T11:11:57.433Z,101643.25
2022-12-20T11:14:31.407Z,101645.09
2022-12-20T11:17:18.207Z,101633.72
2022-12-20T11:19:54.534Z,101639.28
2022-12-20T11:22:27.351Z,101641.88
2022-12-20T11:25:18.069Z,101631.66
2022-12-20T11:28:03.112Z,101629.78
2022-12-20T11:30:38.711Z,101628.69
2022-12-20T11:33:29.380Z,101622.00
2022-12-20T11:36:05.336Z,101624.25
2022-12-20T11:38:36.796Z,101617.75
2022-12-20T11:41:10.084Z,101624.75
2022-12-20T11:44:26.751Z,101621.41
2022-12-20T11:46:58.301Z,101629.28
2022-12-20T11:49:43.771Z,101620.59
2022-12-20T11:52:18.134Z,101617.56
2022-12-20T11:54:58.555Z,101615.06
2022-12-20T11:57:28.857Z,101610.72
2022-12-20T12:00:00.869Z,101615.50
2022-12-20T12:02:53.070Z,101612.56
2022-12-20T12:05:44.180Z,101609.03
2022-12-20T12:08:18.314Z,101606.13
2022-12-20T12:10:53.254Z,101610.53
2022-12-20T12:13:28.117Z,101609.78
2022-12-20T12:16:08.756Z,101601.78
2022-12-20T12:18:39.094Z,101603.53
2022-12-20T12:21:10.147Z,101593.44
2022-12-20T12:23:42.735Z,101589.47
2022-12-20T12:26:17.928Z,101585.16
2022-12-20T12:28:45.388Z,101582.34
2022-12-20T12:31:17.244Z,101581.50
2022-12-20T12:33:51.089Z,101578.53
2022-12-20T12:36:50.729Z,101581.63
2022-12-20T12:39:20.399Z,101581.06
2022-12-20T12:42:03.750Z,101584.75
2022-12-20T12:44:51.690Z,101574.53
2022-12-20T12:47:35.942Z,101564.69
2022-12-20T12:50:06.375Z,101568.91
2022-12-20T12:52:42.305Z,101568.31
2022-12-20T12:55:29.407Z,101556.63
2022-12-20T12:57:59.138Z,101558.78
2022-12-20T13:00:44.833Z,101557.53
2022-12-20T13:03:17.590Z,101546.41
2022-12-20T13:05:50.526Z,101560.91
2022-12-20T13:08:18.887Z,101556.19
2022-12-20T13:10:47.601Z,101554.28
2022-12-20T13:13:22.663Z,101552.37
2022-12-20T13:15:53.228Z,101544.81
2022-12-20T13:18:26.115Z,101562.41
2022-12-20T13:21:15.666Z,101547.91
2022-12-20T13:23:42.591Z,101552.75
2022-12-20T13:26:29.280Z,101557.81
2022-12-20T13:28:56.023Z,101564.72
2022-12-20T13:31:22.823Z,101567.47
2022-12-20T13:33:50.261Z,101563.41
2022-12-20T13:36:17.183Z,101571.41
2022-12-20T20:40:34.847Z,101287.16
2022-12-20T20:43:02.473Z,101287.16
2022-12-20T20:45:30.320Z,101284.47
2022-12-20T20:48:01.161Z,101273.72
2022-12-20T20:50:31.613Z,101280.06
2022-12-20T20:52:59.936Z,101271.44
2022-12-20T20:55:26.959Z,101278.03
2022-12-20T20:57:58.575Z,101287.22
2022-12-20T21:00:32.140Z,101274.56
2022-12-20T21:02:59.993Z,101289.81
2022-12-20T21:08:16.066Z,101273.41
2022-12-20T21:10:43.823Z,101269.53
2022-12-20T21:13:22.597Z,101279.12
2022-12-20T21:15:55.089Z,101268.91
2022-12-20T21:18:23.163Z,101272.38
2022-12-20T21:20:50.273Z,101269.28
2022-12-20T21:23:17.148Z,101269.84
2022-12-20T21:25:44.174Z,101263.50
2022-12-20T21:28:16.254Z,101258.09
2022-12-20T21:30:46.653Z,101246.75
2022-12-20T21:33:13.834Z,101241.91
2022-12-20T21:35:40.740Z,101239.28
2022-12-20T21:38:07.700Z,101237.41
2022-12-20T21:40:35.443Z,101239.28
2022-12-20T21:43:02.365Z,101238.62
2022-12-20T21:45:29.348Z,101233.41
2022-12-20T21:48:02.782Z,101227.44
2022-12-20T21:50:30.417Z,101223.13
2022-12-20T21:52:57.515Z,101232.56
2022-12-20T21:55:24.371Z,101226.09
2022-12-20T21:57:51.269Z,101217.91
2022-12-20T22:00:19.958Z,101213.75
2022-12-20T22:03:07.172Z,101211.84
2022-12-20T22:05:38.582Z,101211.25
2022-12-20T22:08:17.161Z,101196.50
2022-12-20T22:11:09.887Z,101196.88
2022-12-20T22:13:41.619Z,101197.94
2022-12-20T22:16:11.467Z,101191.88
2022-12-20T22:18:40.987Z,101201.88
2022-12-20T22:21:11.240Z,101193.84
2022-12-20T22:23:38.706Z,101200.41
2022-12-20T22:26:08.064Z,101187.66
2022-12-20T22:28:35.377Z,101194.25
2022-12-20T22:31:10.516Z,101189.22
2022-12-20T22:33:38.650Z,101190.00
2022-12-20T22:36:07.048Z,101190.47
2022-12-20T22:38:34.610Z,101192.13
2022-12-20T22:41:13.431Z,101182.34
2022-12-20T22:43:41.749Z,101183.75
2022-12-20T22:46:28.877Z,101183.78
2022-12-20T22:48:56.637Z,101181.12
2022-12-20T22:51:26.092Z,101166.88
2022-12-20T22:53:53.517Z,101162.66
2022-12-20T22:56:21.812Z,101156.75
2022-12-20T22:58:49.980Z,101150.59
2022-12-20T23:01:20.041Z,101152.72
2022-12-20T23:03:48.399Z,101146.94
2022-12-20T23:06:18.700Z,101154.28
2022-12-20T23:08:47.591Z,101150.06
2022-12-20T23:11:39.958Z,101152.00
2022-12-20T23:14:31.625Z,101139.72
2022-12-20T23:16:59.110Z,101136.53
2022-12-20T23:19:26.214Z,101136.44
2022-12-20T23:22:11.978Z,101136.09
2022-12-20T23:24:38.802Z,101129.09
2022-12-20T23:27:05.747Z,101122.94
2022-12-20T23:29:32.611Z,101121.75
2022-12-20T23:31:59.727Z,101113.50
2022-12-20T23:34:27.047Z,101103.22
2022-12-20T23:36:55.082Z,101089.91
2022-12-20T23:39:21.932Z,101088.31
2022-12-20T23:41:48.815Z,101096.69
2022-12-20T23:44:15.751Z,101086.75
2022-12-20T23:46:42.768Z,101090.00
2022-12-20T23:49:09.708Z,101085.41
2022-12-20T23:51:36.683Z,101087.00
2022-12-20T23:54:03.707Z,101082.53
2022-12-20T23:56:30.566Z,101087.00
2022-12-20T23:58:57.951Z,101073.25
